KPTN/PTN METAR and TAF weather

Enter ICAO airport designator
Station Type Date Time Source
KPTN METAR 2019/12/13 16:56 UTC NOAA

KPTN 131656Z AUTO 08005KT 10SM OVC006 13/13 A2996 RMK AO2 SLP146 T01330128


Station Type Date Time Source
KPTN Decoded METAR 2019/12/13 16:56 UTC NOAA

Patterson Memorial, LA, United States (KPTN) 29-43N 091-20W
Dec 13, 2019 - 11:56 AM EST / 2019.12.13 1656 UTC
Wind: from the E (080 degrees) at 6 MPH (5 KT):0
Visibility: 10 mile(s):0
Sky conditions: overcast
Temperature: 55.9 F (13.3 C)
Dew Point: 55.0 F (12.8 C)
Relative Humidity: 96%
Pressure (altimeter): 29.96 in. Hg (1014 hPa)
ob: KPTN 131656Z AUTO 08005KT 10SM OVC006 13/13 A2996 RMK AO2 SLP146 T01330128
cycle: 17

Station Type Date Time Source
KPTN TAF UTC NOAA

Error!

Example: see airport list